Time;durP1;ratioP1;P1;durP2;ratioP2;P2;SDS_P1;SDS_P2;PMS_P1;PMS_P2;Temp;Humidity;BMP_temperature;BMP_pressure;BME280_temperature;BME280_humidity;BME280_pressure;Samples;Min_cycle;Max_cycle;Signal;HPM_P1;HPM_P2
2022/10/08 00:01:04;;;;;;;22.30;13.15;;;21.00;93.60;;;;;;5032498;28;20483;-69
2022/10/08 00:03:32;;;;;;;17.48;11.82;;;20.90;93.70;;;;;;5032242;28;20025;-70
2022/10/08 00:05:58;;;;;;;19.42;11.38;;;20.90;93.60;;;;;;5032413;28;20036;-72
2022/10/08 00:08:25;;;;;;;20.65;12.20;;;20.90;93.70;;;;;;5032227;28;20033;-72
2022/10/08 00:10:55;;;;;;;21.10;12.75;;;20.90;93.70;;;;;;5032551;28;20034;-70
2022/10/08 00:13:22;;;;;;;16.55;11.95;;;20.90;93.70;;;;;;5032428;28;20021;-71
2022/10/08 00:15:49;;;;;;;22.20;12.77;;;20.90;93.60;;;;;;5032362;28;20516;-73
2022/10/08 00:18:15;;;;;;;20.83;13.25;;;20.90;93.60;;;;;;5032286;28;20018;-71
2022/10/08 00:20:41;;;;;;;19.42;13.63;;;20.90;93.60;;;;;;5032104;28;20036;-71
2022/10/08 00:23:07;;;;;;;25.40;12.98;;;20.80;93.70;;;;;;5032260;28;20061;-71
2022/10/08 00:25:42;;;;;;;18.77;12.38;;;20.80;93.70;;;;;;5032193;28;20057;-72
2022/10/08 00:28:12;;;;;;;23.25;12.50;;;20.80;94.10;;;;;;5032303;28;20025;-70
2022/10/08 00:30:40;;;;;;;17.33;12.80;;;20.70;93.80;;;;;;5032331;28;20044;-70
2022/10/08 00:33:07;;;;;;;21.25;12.75;;;20.70;93.80;;;;;;5032411;28;20041;-68
2022/10/08 00:35:39;;;;;;;19.13;12.93;;;20.70;93.90;;;;;;5032036;28;20018;-69
2022/10/08 00:38:06;;;;;;;19.30;12.82;;;20.70;94.10;;;;;;5032617;28;20026;-71
2022/10/08 00:40:41;;;;;;;20.70;12.60;;;20.60;94.10;;;;;;5033694;28;20470;-71
2022/10/08 00:43:14;;;;;;;16.88;12.65;;;20.60;94.10;;;;;;5035899;28;20025;-71
2022/10/08 00:45:41;;;;;;;22.95;14.00;;;20.60;94.30;;;;;;5035883;28;20021;-73
2022/10/08 00:48:11;;;;;;;18.90;13.65;;;20.60;94.20;;;;;;5035868;28;20084;-71
2022/10/08 00:50:38;;;;;;;24.90;14.30;;;20.50;94.10;;;;;;5035728;28;20033;-70
2022/10/08 00:53:09;;;;;;;18.40;13.43;;;20.50;94.20;;;;;;5035554;28;20100;-71
2022/10/08 00:55:38;;;;;;;17.90;13.80;;;20.50;94.20;;;;;;5035618;28;20036;-72
2022/10/08 00:58:12;;;;;;;18.42;13.02;;;20.50;94.10;;;;;;5035181;28;20050;-73
2022/10/08 01:00:38;;;;;;;30.38;14.25;;;20.40;94.00;;;;;;5035804;28;20022;-73
2022/10/08 01:03:05;;;;;;;25.08;14.15;;;20.40;94.20;;;;;;5035687;28;20033;-72
2022/10/08 01:05:43;;;;;;;21.35;13.27;;;20.40;94.20;;;;;;5035464;28;20036;-70
2022/10/08 01:08:32;;;;;;;17.70;12.50;;;20.40;94.40;;;;;;5035584;28;20029;-68
2022/10/08 01:11:22;;;;;;;27.70;14.52;;;20.30;94.30;;;;;;5017538;28;20032;-69
2022/10/08 01:14:01;;;;;;;21.75;12.85;;;20.30;94.30;;;;;;5035414;28;20049;-69
2022/10/08 01:16:47;;;;;;;22.02;13.68;;;20.40;94.30;;;;;;5035219;28;20516;-69
2022/10/08 01:19:22;;;;;;;23.83;13.68;;;20.40;94.40;;;;;;5017214;28;20470;-70
2022/10/08 01:22:06;;;;;;;22.75;13.05;;;20.40;94.40;;;;;;5035224;28;20120;-71
2022/10/08 01:27:33;;;;;;;26.70;14.27;;;20.30;94.30;;;;;;5035575;28;20036;-69
2022/10/08 01:30:07;;;;;;;25.75;13.80;;;20.30;94.20;;;;;;5035228;28;20049;-70
2022/10/08 01:32:47;;;;;;;19.75;15.05;;;20.30;94.40;;;;;;5035877;28;20024;-68
2022/10/08 01:35:24;;;;;;;32.67;14.77;;;20.30;94.50;;;;;;5036266;28;20079;-70
2022/10/08 01:37:54;;;;;;;27.83;13.90;;;20.20;94.60;;;;;;5036691;28;20064;-69
2022/10/08 01:40:26;;;;;;;21.50;13.98;;;20.10;94.50;;;;;;5036552;28;20025;-71
2022/10/08 01:42:53;;;;;;;20.70;13.55;;;20.10;94.70;;;;;;5036528;28;20029;-73
2022/10/08 01:45:24;;;;;;;23.48;13.88;;;20.10;94.80;;;;;;5035549;28;20022;-70
2022/10/08 01:47:51;;;;;;;21.63;14.35;;;20.10;94.80;;;;;;5038701;28;20017;-72
2022/10/08 01:50:27;;;;;;;26.75;14.52;;;20.10;94.90;;;;;;5018867;28;20033;-69
2022/10/08 01:52:57;;;;;;;24.17;14.00;;;20.10;94.90;;;;;;5033462;28;20037;-72
2022/10/08 01:55:46;;;;;;;18.83;13.88;;;20.00;94.90;;;;;;5034523;28;20021;-71
2022/10/08 01:58:26;;;;;;;31.58;13.75;;;20.00;94.90;;;;;;5034358;28;20049;-69
2022/10/08 02:00:54;;;;;;;25.23;14.25;;;20.00;95.00;;;;;;5034590;28;20025;-70
2022/10/08 02:03:20;;;;;;;21.45;13.50;;;19.90;95.00;;;;;;5034395;28;20053;-72
2022/10/08 02:05:50;;;;;;;20.83;13.35;;;19.90;95.20;;;;;;5034345;28;20022;-71
2022/10/08 02:08:16;;;;;;;17.23;12.82;;;19.90;95.30;;;;;;5034400;28;20032;-71
2022/10/08 02:10:42;;;;;;;25.48;12.82;;;19.80;95.20;;;;;;5034293;28;20034;-70
2022/10/08 02:13:10;;;;;;;22.80;13.25;;;19.80;95.30;;;;;;5033956;28;20029;-71
2022/10/08 02:15:39;;;;;;;18.10;12.80;;;19.80;95.40;;;;;;5016042;28;20060;-72
2022/10/08 02:18:17;;;;;;;21.45;13.57;;;19.80;95.30;;;;;;5034275;28;20036;-71
2022/10/08 02:20:52;;;;;;;22.45;12.57;;;19.80;95.40;;;;;;5034188;28;20463;-72
2022/10/08 02:23:43;;;;;;;21.83;12.93;;;19.80;95.50;;;;;;5034147;28;20017;-73
2022/10/08 02:26:30;;;;;;;21.05;12.82;;;19.80;95.40;;;;;;5032925;28;20120;-73
2022/10/08 02:29:27;;;;;;;18.27;12.80;;;19.80;95.40;;;;;;5033751;28;20048;-68
2022/10/08 02:31:59;;;;;;;20.65;12.52;;;19.80;95.50;;;;;;5034003;28;20045;-69
2022/10/08 02:34:28;;;;;;;17.40;12.52;;;19.70;95.50;;;;;;5033553;28;20030;-69
2022/10/08 02:37:09;;;;;;;21.77;13.23;;;19.70;95.50;;;;;;5033442;28;20021;-72
2022/10/08 02:39:39;;;;;;;21.48;13.32;;;19.70;95.50;;;;;;5033756;28;20036;-70
2022/10/08 02:42:12;;;;;;;22.27;13.20;;;19.70;95.60;;;;;;5033783;28;20080;-70
2022/10/08 02:44:45;;;;;;;21.10;12.02;;;19.60;95.50;;;;;;5033885;28;20363;-72
2022/10/08 02:47:15;;;;;;;21.98;13.25;;;19.60;95.60;;;;;;5033370;28;20049;-72
2022/10/08 02:49:53;;;;;;;20.00;12.82;;;19.60;95.60;;;;;;5033302;28;20486;-71
2022/10/08 02:52:21;;;;;;;18.38;13.38;;;19.60;95.60;;;;;;5033378;28;20439;-71
2022/10/08 02:54:49;;;;;;;20.52;12.70;;;19.60;95.60;;;;;;5033346;28;20036;-69
2022/10/08 02:57:28;;;;;;;22.00;13.68;;;19.60;95.60;;;;;;5033092;28;20116;-69
2022/10/08 02:59:54;;;;;;;17.95;12.88;;;19.60;95.70;;;;;;5033292;28;20096;-71
2022/10/08 03:02:42;;;;;;;20.85;13.25;;;19.60;95.60;;;;;;5033367;28;20028;-71
2022/10/08 03:05:15;;;;;;;21.42;13.68;;;19.60;95.70;;;;;;5032892;28;20025;-71
2022/10/08 03:07:42;;;;;;;15.93;12.27;;;19.50;95.60;;;;;;5032929;28;20033;-71
2022/10/08 03:10:08;;;;;;;20.63;13.70;;;19.50;95.60;;;;;;5033034;28;20045;-71
2022/10/08 03:12:34;;;;;;;17.48;13.25;;;19.50;95.70;;;;;;5033019;28;20013;-72
2022/10/08 03:15:00;;;;;;;20.63;14.15;;;19.50;95.50;;;;;;5032992;28;20382;-71
2022/10/08 03:17:40;;;;;;;19.13;12.30;;;19.50;95.60;;;;;;5033108;28;20053;-72
2022/10/08 03:20:07;;;;;;;17.23;13.18;;;19.50;95.50;;;;;;5032747;28;20049;-72
2022/10/08 03:22:33;;;;;;;21.05;14.05;;;19.50;95.50;;;;;;5033072;28;20085;-72
2022/10/08 03:25:00;;;;;;;21.27;14.85;;;19.50;95.50;;;;;;5032804;28;20430;-72
2022/10/08 03:27:25;;;;;;;21.52;13.40;;;19.40;95.50;;;;;;5032841;28;20025;-73
2022/10/08 03:29:55;;;;;;;23.05;14.43;;;19.40;95.50;;;;;;5033071;28;20034;-72
2022/10/08 03:32:23;;;;;;;23.98;15.25;;;19.40;95.50;;;;;;5032869;28;20025;-71
2022/10/08 03:34:49;;;;;;;25.95;14.38;;;19.30;95.40;;;;;;5032804;28;20029;-72
2022/10/08 03:37:15;;;;;;;19.27;15.30;;;19.30;95.40;;;;;;5032985;28;20111;-72
2022/10/08 03:39:42;;;;;;;21.38;14.98;;;19.30;95.40;;;;;;5032976;28;20034;-70
2022/10/08 03:42:08;;;;;;;18.10;14.27;;;19.20;95.40;;;;;;5032889;28;20031;-73
2022/10/08 03:44:34;;;;;;;19.95;15.70;;;19.20;95.40;;;;;;5032726;28;20379;-72
2022/10/08 03:46:59;;;;;;;18.52;14.60;;;19.20;95.60;;;;;;5033327;28;20151;-72
2022/10/08 03:49:25;;;;;;;21.63;16.70;;;19.20;95.40;;;;;;5015524;28;20144;-70
2022/10/08 03:51:51;;;;;;;21.90;14.88;;;19.20;95.50;;;;;;5033115;28;20076;-74
2022/10/08 03:54:16;;;;;;;20.75;15.85;;;19.10;95.50;;;;;;5032652;28;20024;-73
2022/10/08 03:56:42;;;;;;;22.13;16.30;;;19.20;95.50;;;;;;5032239;28;20052;-73
2022/10/08 03:59:08;;;;;;;19.38;15.63;;;19.20;95.40;;;;;;5032640;28;20067;-71
2022/10/08 04:01:34;;;;;;;20.77;15.45;;;19.20;95.50;;;;;;5032353;28;20033;-72
2022/10/08 04:03:59;;;;;;;21.77;15.40;;;19.20;95.40;;;;;;5032414;28;20029;-71
2022/10/08 04:06:25;;;;;;;21.85;13.40;;;19.20;95.40;;;;;;5032213;28;20095;-73
2022/10/08 04:08:52;;;;;;;20.08;14.07;;;19.20;95.30;;;;;;5032289;28;20026;-73
2022/10/08 04:11:19;;;;;;;18.45;14.25;;;19.20;95.30;;;;;;5014638;28;20060;-72
2022/10/08 04:13:45;;;;;;;18.63;13.82;;;19.20;95.20;;;;;;5032402;28;20037;-73
2022/10/08 04:16:13;;;;;;;20.58;14.25;;;19.20;95.20;;;;;;5016687;28;20147;-72
2022/10/08 04:18:39;;;;;;;21.42;13.07;;;19.20;95.10;;;;;;5036225;28;20560;-72
2022/10/08 04:21:08;;;;;;;18.83;13.55;;;19.20;95.00;;;;;;5018491;28;20117;-71
2022/10/08 04:23:35;;;;;;;18.40;13.68;;;19.10;95.00;;;;;;5036416;28;20148;-73
2022/10/08 04:26:01;;;;;;;20.67;13.40;;;19.10;95.00;;;;;;5035910;28;20037;-73
2022/10/08 04:28:28;;;;;;;17.00;13.20;;;19.10;94.90;;;;;;5036136;28;20022;-73
2022/10/08 04:30:55;;;;;;;16.83;12.98;;;19.10;94.90;;;;;;5035956;28;20537;-69
2022/10/08 04:33:20;;;;;;;21.48;12.63;;;19.10;94.90;;;;;;5035811;28;20022;-69
2022/10/08 04:35:46;;;;;;;20.48;14.93;;;19.10;94.90;;;;;;5035831;28;20087;-69
2022/10/08 04:38:13;;;;;;;21.35;16.40;;;19.10;94.80;;;;;;5035943;28;20021;-70
2022/10/08 04:40:39;;;;;;;22.92;16.45;;;19.00;94.90;;;;;;5035855;28;20049;-70
2022/10/08 04:43:04;;;;;;;20.13;15.27;;;18.90;94.90;;;;;;5035739;28;20071;-68
2022/10/08 04:45:30;;;;;;;20.42;13.65;;;18.90;94.90;;;;;;5035488;28;20033;-69
2022/10/08 04:47:56;;;;;;;21.38;14.50;;;18.90;94.90;;;;;;5035981;28;20040;-69
2022/10/08 04:50:21;;;;;;;18.92;13.57;;;18.90;94.90;;;;;;5035426;28;20041;-68
2022/10/08 04:52:47;;;;;;;19.77;13.70;;;18.90;94.90;;;;;;5035536;28;20104;-68
2022/10/08 04:55:13;;;;;;;18.15;12.07;;;19.00;94.90;;;;;;5035299;28;20466;-68
2022/10/08 04:57:38;;;;;;;19.70;12.50;;;18.90;94.70;;;;;;5017202;28;20041;-70
2022/10/08 05:00:05;;;;;;;15.80;12.02;;;18.90;94.70;;;;;;5035414;28;20068;-68
2022/10/08 05:02:31;;;;;;;16.98;11.02;;;18.90;94.60;;;;;;5035370;28;20018;-71
2022/10/08 05:04:57;;;;;;;14.20;10.98;;;18.90;94.60;;;;;;5035447;28;20391;-73
2022/10/08 05:07:23;;;;;;;20.08;11.35;;;18.90;94.60;;;;;;5035244;28;20544;-74
2022/10/08 05:09:49;;;;;;;16.33;10.95;;;18.90;94.50;;;;;;5035427;28;20123;-68
2022/10/08 05:12:15;;;;;;;12.88;10.55;;;18.90;94.40;;;;;;5017240;28;20386;-72
2022/10/08 05:14:40;;;;;;;16.52;11.48;;;18.80;94.40;;;;;;5034824;28;20030;-71
2022/10/08 05:17:06;;;;;;;14.23;10.73;;;18.80;94.30;;;;;;5034755;28;20018;-69
2022/10/08 05:19:32;;;;;;;14.05;10.40;;;18.80;94.30;;;;;;5034921;28;20036;-71
2022/10/08 05:21:58;;;;;;;20.73;11.23;;;18.80;94.30;;;;;;5034854;28;20109;-71
2022/10/08 05:24:24;;;;;;;13.85;10.15;;;18.80;94.40;;;;;;5034972;28;20025;-72
2022/10/08 05:26:51;;;;;;;16.98;9.98;;;18.80;94.40;;;;;;5034787;28;20026;-71
2022/10/08 05:29:17;;;;;;;17.17;10.98;;;18.80;94.40;;;;;;5034787;28;20033;-70
2022/10/08 05:31:43;;;;;;;16.63;11.50;;;18.80;94.30;;;;;;5034588;28;20025;-71
2022/10/08 05:34:11;;;;;;;15.55;11.75;;;18.80;94.30;;;;;;5034544;28;20029;-69
2022/10/08 05:36:36;;;;;;;18.35;11.70;;;18.80;94.20;;;;;;5034637;28;20411;-71
2022/10/08 05:39:04;;;;;;;17.73;11.98;;;18.80;94.20;;;;;;5034504;28;20029;-69
2022/10/08 05:41:33;;;;;;;14.32;11.13;;;18.80;94.20;;;;;;5034673;28;20148;-73
2022/10/08 05:44:02;;;;;;;19.80;13.48;;;18.80;94.20;;;;;;5034496;28;20489;-71
2022/10/08 05:46:30;;;;;;;16.98;11.73;;;18.80;94.20;;;;;;5034333;28;20024;-73
2022/10/08 05:48:58;;;;;;;16.38;11.35;;;18.80;94.20;;;;;;5034428;28;20026;-71
2022/10/08 05:51:24;;;;;;;13.80;10.75;;;18.80;94.10;;;;;;5034438;28;20033;-72
2022/10/08 05:53:51;;;;;;;18.88;12.20;;;18.80;94.10;;;;;;5034726;28;20013;-72
2022/10/08 05:56:20;;;;;;;19.42;11.73;;;18.80;94.00;;;;;;5034351;28;20025;-72
2022/10/08 05:58:46;;;;;;;19.95;11.88;;;18.90;94.00;;;;;;5034832;28;20064;-72
2022/10/08 06:01:13;;;;;;;17.85;11.35;;;18.90;93.90;;;;;;5035264;28;20060;-74
2022/10/08 06:03:39;;;;;;;17.67;11.35;;;18.80;93.70;;;;;;5035438;28;20479;-71
2022/10/08 06:06:08;;;;;;;16.67;10.80;;;18.80;93.80;;;;;;5017206;28;20029;-71
2022/10/08 06:08:35;;;;;;;14.40;9.80;;;18.90;93.70;;;;;;5016832;28;20036;-74
2022/10/08 06:11:02;;;;;;;12.65;9.35;;;18.90;93.50;;;;;;5034682;28;20030;-75
2022/10/08 06:13:27;;;;;;;16.55;10.07;;;19.00;93.30;;;;;;5034458;28;20022;-72
2022/10/08 06:16:17;;;;;;;13.32;10.15;;;19.10;93.20;;;;;;5034649;28;20033;-71
2022/10/08 06:18:42;;;;;;;14.77;9.88;;;19.20;92.90;;;;;;5033763;28;20041;-74
2022/10/08 06:21:13;;;;;;;15.02;10.77;;;19.10;92.70;;;;;;5034095;28;20183;-71
2022/10/08 06:23:48;;;;;;;16.33;10.70;;;19.20;92.80;;;;;;5033832;28;20029;-71
2022/10/08 06:26:14;;;;;;;22.85;17.10;;;19.30;92.80;;;;;;5033925;28;20045;-73
2022/10/08 06:28:40;;;;;;;23.08;16.25;;;19.40;92.60;;;;;;5033587;28;20033;-73
2022/10/08 06:31:06;;;;;;;19.17;13.77;;;19.50;92.40;;;;;;5015754;28;20488;-72
2022/10/08 06:33:33;;;;;;;18.60;12.25;;;19.50;92.10;;;;;;5034042;28;20417;-72
2022/10/08 06:36:04;;;;;;;15.60;10.27;;;19.60;92.00;;;;;;5033311;28;20109;-72
2022/10/08 06:38:30;;;;;;;17.67;10.65;;;19.70;91.90;;;;;;5032965;28;20030;-71
2022/10/08 06:40:59;;;;;;;18.38;10.90;;;19.90;91.80;;;;;;5033459;28;20056;-73
2022/10/08 06:43:25;;;;;;;17.85;12.18;;;20.00;91.50;;;;;;5033521;28;20446;-71
2022/10/08 06:45:52;;;;;;;18.42;11.55;;;20.00;91.40;;;;;;5033273;28;20429;-72
2022/10/08 06:48:18;;;;;;;17.23;12.15;;;20.10;91.30;;;;;;5033636;28;20025;-73
2022/10/08 06:50:45;;;;;;;21.73;13.75;;;20.20;91.10;;;;;;5033630;28;20056;-74
2022/10/08 06:53:11;;;;;;;15.25;12.82;;;20.30;90.90;;;;;;5033392;28;20036;-70
2022/10/08 06:55:40;;;;;;;23.10;13.95;;;20.50;90.90;;;;;;5033209;28;20032;-71
2022/10/08 06:58:05;;;;;;;22.63;12.88;;;20.60;90.50;;;;;;5033149;28;20049;-71
2022/10/08 07:00:35;;;;;;;20.40;13.13;;;20.70;90.50;;;;;;5033042;28;20044;-72
2022/10/08 07:03:00;;;;;;;20.52;13.18;;;20.70;90.40;;;;;;5033307;28;20365;-72
2022/10/08 07:05:26;;;;;;;18.80;12.75;;;20.70;90.30;;;;;;5032824;28;20030;-70
2022/10/08 07:07:52;;;;;;;19.27;12.98;;;20.80;90.30;;;;;;5032869;28;20052;-71
2022/10/08 07:10:17;;;;;;;20.15;13.25;;;21.00;90.20;;;;;;5032724;28;20044;-70
2022/10/08 07:12:43;;;;;;;18.80;14.00;;;21.10;89.70;;;;;;5032929;28;20021;-70
2022/10/08 07:15:09;;;;;;;19.27;14.70;;;21.20;90.00;;;;;;5032933;28;20041;-69
2022/10/08 07:17:35;;;;;;;21.77;12.82;;;21.30;89.40;;;;;;5032840;28;20018;-69
2022/10/08 07:20:01;;;;;;;19.98;14.23;;;21.40;88.90;;;;;;5033087;28;20104;-71
2022/10/08 07:22:27;;;;;;;24.85;14.70;;;21.60;88.20;;;;;;5033155;28;20095;-71
2022/10/08 07:24:52;;;;;;;17.42;13.48;;;21.80;87.90;;;;;;5032647;28;20032;-74
2022/10/08 07:27:18;;;;;;;20.10;13.02;;;21.90;87.70;;;;;;5032918;28;20371;-70
2022/10/08 07:29:44;;;;;;;22.67;12.95;;;21.80;87.40;;;;;;5032572;28;20445;-70
2022/10/08 07:32:10;;;;;;;19.83;12.90;;;21.90;87.40;;;;;;5032359;28;20021;-71
2022/10/08 07:34:35;;;;;;;15.02;12.13;;;22.00;86.80;;;;;;5032575;28;20039;-71
2022/10/08 07:37:01;;;;;;;20.48;13.50;;;22.10;86.70;;;;;;5032425;28;20032;-73
2022/10/08 07:39:27;;;;;;;18.63;14.35;;;22.20;86.20;;;;;;5032434;28;20026;-70
2022/10/08 07:41:53;;;;;;;24.95;19.27;;;22.40;86.00;;;;;;5032625;28;20025;-70
2022/10/08 07:44:19;;;;;;;21.58;15.63;;;22.40;85.60;;;;;;5032519;28;20030;-69
2022/10/08 07:46:47;;;;;;;26.10;15.07;;;22.50;85.50;;;;;;5032279;28;20040;-70
2022/10/08 07:49:14;;;;;;;20.80;13.60;;;22.60;85.10;;;;;;5032205;28;20041;-71
2022/10/08 07:51:42;;;;;;;20.45;14.23;;;22.70;84.50;;;;;;5035794;28;20072;-72
2022/10/08 07:54:16;;;;;;;21.17;14.10;;;22.70;84.50;;;;;;5036466;28;20039;-70
2022/10/08 07:56:41;;;;;;;22.25;13.25;;;22.70;84.80;;;;;;5036114;28;20029;-68
2022/10/08 07:59:07;;;;;;;19.83;13.30;;;22.90;84.00;;;;;;5036168;28;20040;-72
2022/10/08 08:01:34;;;;;;;20.88;14.18;;;23.00;83.60;;;;;;5036301;28;20029;-69
2022/10/08 08:04:02;;;;;;;21.42;16.58;;;23.10;83.40;;;;;;5036542;28;20033;-71
2022/10/08 08:06:29;;;;;;;22.10;14.93;;;23.20;83.30;;;;;;5036140;28;20037;-71
2022/10/08 08:08:55;;;;;;;23.70;16.50;;;23.30;83.50;;;;;;5036243;28;20067;-72
2022/10/08 08:11:23;;;;;;;19.73;15.00;;;23.30;83.70;;;;;;5036314;28;20069;-72
2022/10/08 08:13:51;;;;;;;25.50;17.42;;;23.30;83.40;;;;;;5036176;28;20026;-73
2022/10/08 08:16:19;;;;;;;23.45;18.10;;;23.30;83.60;;;;;;5035925;28;20100;-71
2022/10/08 08:18:49;;;;;;;25.20;18.20;;;23.30;84.30;;;;;;5035887;28;20479;-73
2022/10/08 08:21:20;;;;;;;21.25;14.98;;;23.30;83.90;;;;;;5036108;28;20022;-73
2022/10/08 08:23:48;;;;;;;22.50;14.40;;;23.40;84.00;;;;;;5018506;28;20057;-70
2022/10/08 08:26:21;;;;;;;22.08;14.90;;;23.50;83.80;;;;;;5035782;28;20088;-72
2022/10/08 08:28:51;;;;;;;18.95;14.32;;;23.50;83.40;;;;;;5035641;28;20044;-71
2022/10/08 08:31:32;;;;;;;26.00;15.75;;;23.60;83.30;;;;;;5035894;28;20045;-72
2022/10/08 08:34:00;;;;;;;17.48;14.48;;;23.60;84.30;;;;;;5035537;28;20022;-70
2022/10/08 08:36:31;;;;;;;23.63;15.05;;;23.60;83.30;;;;;;5035154;28;20109;-70
2022/10/08 08:38:58;;;;;;;19.67;14.23;;;23.60;83.40;;;;;;5035345;28;20108;-70
2022/10/08 08:41:52;;;;;;;21.73;14.45;;;23.70;83.10;;;;;;5035695;28;20026;-71
2022/10/08 08:44:32;;;;;;;16.20;13.10;;;23.80;84.20;;;;;;5035701;28;20037;-72
2022/10/08 08:47:10;;;;;;;20.48;14.40;;;23.80;84.00;;;;;;5017381;28;20029;-72
2022/10/08 08:49:40;;;;;;;19.63;13.63;;;24.00;83.70;;;;;;5035688;28;20561;-71
2022/10/08 08:52:07;;;;;;;19.48;14.52;;;24.10;83.00;;;;;;5035362;28;20157;-74
2022/10/08 08:54:33;;;;;;;24.10;13.48;;;24.20;82.30;;;;;;5035275;28;20112;-73
2022/10/08 08:57:25;;;;;;;19.83;12.85;;;24.20;82.00;;;;;;5034906;28;20128;-73
2022/10/08 08:59:54;;;;;;;19.00;12.38;;;24.30;82.60;;;;;;5034997;28;20083;-71
2022/10/08 09:02:34;;;;;;;22.10;12.93;;;24.40;81.50;;;;;;5034613;28;20031;-71
2022/10/08 09:05:05;;;;;;;23.40;14.20;;;24.40;81.60;;;;;;5035039;28;20040;-70
2022/10/08 09:07:41;;;;;;;16.80;11.32;;;24.40;81.70;;;;;;5035213;28;20079;-71
2022/10/08 09:10:33;;;;;;;16.13;11.25;;;24.50;80.90;;;;;;5034868;28;20033;-72
2022/10/08 09:13:00;;;;;;;11.85;9.45;;;24.50;80.90;;;;;;5034890;28;20475;-69
2022/10/08 09:15:35;;;;;;;12.95;8.55;;;24.60;80.40;;;;;;5034585;28;20105;-72
2022/10/08 09:18:03;;;;;;;13.65;8.25;;;24.70;80.40;;;;;;5034759;28;20101;-73
2022/10/08 09:20:29;;;;;;;12.95;7.70;;;24.70;79.40;;;;;;5034787;28;20431;-74
2022/10/08 09:22:56;;;;;;;13.85;7.53;;;24.70;79.20;;;;;;5034854;28;20083;-73
2022/10/08 09:25:25;;;;;;;15.68;8.32;;;24.70;78.60;;;;;;5034864;28;20428;-74
2022/10/08 09:28:03;;;;;;;12.02;6.80;;;24.80;78.50;;;;;;5034657;28;20072;-71
2022/10/08 09:30:41;;;;;;;13.70;7.45;;;24.90;78.50;;;;;;5034545;28;20037;-74
2022/10/08 09:33:15;;;;;;;10.38;6.45;;;25.00;78.80;;;;;;5034677;28;20017;-73
2022/10/08 09:35:46;;;;;;;12.82;8.65;;;25.10;78.30;;;;;;5016436;28;20529;-72
2022/10/08 09:38:24;;;;;;;13.20;6.90;;;25.10;77.70;;;;;;5034438;28;20095;-74
2022/10/08 09:41:09;;;;;;;23.33;17.45;;;25.20;77.40;;;;;;5034415;28;20082;-71
2022/10/08 09:43:35;;;;;;;26.67;17.83;;;25.30;76.80;;;;;;5034113;28;20025;-73
2022/10/08 09:46:10;;;;;;;18.30;11.05;;;25.40;76.30;;;;;;5034111;28;20320;-72
2022/10/08 09:48:38;;;;;;;14.73;8.48;;;25.50;76.70;;;;;;5034654;28;20040;-74
2022/10/08 09:51:15;;;;;;;10.98;6.47;;;25.60;76.30;;;;;;5034081;28;20041;-73
2022/10/08 09:53:57;;;;;;;10.27;6.32;;;25.70;75.80;;;;;;5034089;28;20075;-71
2022/10/08 09:56:29;;;;;;;8.32;5.70;;;25.90;75.20;;;;;;5034203;28;20029;-71
2022/10/08 09:58:57;;;;;;;9.63;6.13;;;26.00;75.00;;;;;;5034037;28;20057;-71
2022/10/08 10:01:26;;;;;;;10.18;6.07;;;26.10;73.60;;;;;;5034044;28;20164;-69
2022/10/08 10:03:54;;;;;;;10.27;6.50;;;26.20;72.00;;;;;;5033943;28;20037;-71
2022/10/08 10:06:38;;;;;;;9.40;6.65;;;26.20;72.20;;;;;;5033652;28;20033;-70
2022/10/08 10:09:10;;;;;;;9.95;6.00;;;26.20;71.20;;;;;;5033843;28;20129;-71
2022/10/08 10:11:48;;;;;;;9.93;6.38;;;26.10;73.00;;;;;;5034209;28;20037;-71
2022/10/08 10:14:20;;;;;;;10.55;5.95;;;26.10;73.80;;;;;;5033248;28;20535;-70
2022/10/08 10:16:51;;;;;;;14.15;6.32;;;26.10;72.10;;;;;;5033810;28;20029;-71
2022/10/08 10:19:31;;;;;;;13.57;5.82;;;26.10;72.50;;;;;;5034096;28;20075;-71
2022/10/08 10:22:24;;;;;;;7.72;4.90;;;26.20;71.50;;;;;;5033726;28;20017;-70
2022/10/08 10:25:17;;;;;;;13.95;5.85;;;26.20;70.50;;;;;;5034141;28;20017;-71
2022/10/08 10:27:53;;;;;;;9.32;4.95;;;26.20;70.30;;;;;;5033807;28;20151;-72
2022/10/08 10:30:20;;;;;;;12.00;5.20;;;26.20;70.60;;;;;;5034093;28;20045;-74
2022/10/08 10:33:09;;;;;;;8.15;4.53;;;26.20;71.10;;;;;;5034287;28;20026;-71
2022/10/08 10:35:44;;;;;;;8.43;4.53;;;26.20;69.10;;;;;;5033771;28;20022;-71
2022/10/08 10:38:23;;;;;;;12.27;5.28;;;26.30;70.30;;;;;;5033439;28;20069;-71
2022/10/08 10:40:54;;;;;;;11.55;7.10;;;26.30;70.30;;;;;;5033392;28;20022;-71
2022/10/08 10:43:33;;;;;;;10.13;5.75;;;26.40;68.90;;;;;;5033278;28;20037;-73
2022/10/08 10:46:17;;;;;;;10.55;4.80;;;26.60;67.20;;;;;;5032969;28;20018;-74
2022/10/08 10:48:43;;;;;;;8.93;4.93;;;26.70;66.30;;;;;;5015457;28;20493;-70
2022/10/08 10:51:08;;;;;;;9.57;5.25;;;26.80;68.40;;;;;;5033367;28;20018;-72
2022/10/08 10:53:52;;;;;;;8.88;5.15;;;26.80;69.30;;;;;;5033371;28;20036;-74
2022/10/08 10:56:20;;;;;;;9.38;6.18;;;26.80;68.90;;;;;;5033586;28;20034;-74
2022/10/08 10:59:13;;;;;;;11.48;5.68;;;26.60;70.60;;;;;;5033172;28;20030;-75
2022/10/08 11:01:51;;;;;;;11.32;5.57;;;26.30;69.70;;;;;;5033321;28;20486;-74
2022/10/08 11:04:26;;;;;;;8.77;5.55;;;26.10;70.80;;;;;;5033021;28;20087;-72
2022/10/08 11:06:56;;;;;;;9.75;5.03;;;26.10;71.60;;;;;;5032765;28;20207;-75
2022/10/08 11:09:46;;;;;;;11.15;6.05;;;26.20;72.30;;;;;;5014959;28;20062;-74
2022/10/08 11:12:23;;;;;;;12.65;5.50;;;26.30;70.50;;;;;;5033280;28;20021;-75
2022/10/08 11:15:05;;;;;;;11.38;4.95;;;26.30;70.30;;;;;;5033383;28;20053;-75
2022/10/08 11:18:35;;;;;;;7.95;4.63;;;26.30;71.30;;;;;;5033030;28;20115;-71
2022/10/08 11:21:21;;;;;;;9.95;4.72;;;26.20;69.90;;;;;;4984976;28;20410;-72
2022/10/08 11:24:02;;;;;;;9.15;4.60;;;26.20;70.10;;;;;;5032634;28;20029;-70
2022/10/08 11:26:38;;;;;;;12.25;5.55;;;26.10;70.10;;;;;;5032376;28;20207;-72
2022/10/08 11:29:19;;;;;;;8.38;5.13;;;26.00;70.20;;;;;;5032530;28;20072;-73
2022/10/08 11:31:48;;;;;;;7.03;5.30;;;25.90;71.80;;;;;;5032598;28;20086;-70
2022/10/08 11:34:20;;;;;;;11.32;4.43;;;25.90;71.70;;;;;;5032781;28;20160;-73
2022/10/08 11:36:56;;;;;;;9.85;5.20;;;26.10;71.40;;;;;;5032445;28;20025;-72
2022/10/08 11:39:51;;;;;;;10.00;5.05;;;26.30;70.10;;;;;;5032624;28;20083;-73
2022/10/08 11:42:38;;;;;;;8.20;4.97;;;26.30;69.80;;;;;;4997740;28;20494;-70
2022/10/08 11:45:13;;;;;;;9.52;5.05;;;26.30;69.90;;;;;;5032679;28;20083;-72
2022/10/08 11:47:42;;;;;;;11.38;4.43;;;26.10;71.50;;;;;;5032741;28;20025;-72
2022/10/08 11:50:21;;;;;;;9.82;4.80;;;26.00;72.60;;;;;;5032430;28;20495;-71
2022/10/08 11:52:46;;;;;;;8.70;5.05;;;26.00;71.90;;;;;;5032593;28;20030;-71
2022/10/08 11:55:47;;;;;;;7.60;4.20;;;25.90;72.00;;;;;;5032900;28;20021;-73
2022/10/08 11:58:29;;;;;;;8.60;4.43;;;26.00;72.00;;;;;;5032508;28;20390;-72
2022/10/08 12:01:06;;;;;;;9.23;4.93;;;26.10;71.70;;;;;;5031964;28;20146;-71
2022/10/08 12:03:36;;;;;;;7.45;4.75;;;26.30;71.10;;;;;;5032147;28;20474;-71
2022/10/08 12:06:24;;;;;;;8.57;4.65;;;26.40;70.60;;;;;;5032238;28;20155;-74
2022/10/08 12:08:58;;;;;;;7.75;4.60;;;26.60;68.80;;;;;;5032544;28;20033;-73
2022/10/08 12:11:30;;;;;;;9.60;4.30;;;26.70;68.50;;;;;;5031966;28;20029;-74
2022/10/08 12:14:11;;;;;;;8.70;4.25;;;26.60;69.30;;;;;;5032480;28;20034;-70
2022/10/08 12:16:46;;;;;;;8.20;4.10;;;26.60;69.20;;;;;;5014602;28;20037;-73
2022/10/08 12:19:43;;;;;;;15.63;9.70;;;26.40;68.20;;;;;;5032301;28;20451;-72
2022/10/08 12:22:32;;;;;;;7.60;4.63;;;26.40;68.30;;;;;;5030418;28;20080;-72
2022/10/08 12:24:58;;;;;;;9.43;6.35;;;26.40;68.50;;;;;;5019260;28;20052;-73
2022/10/08 12:27:29;;;;;;;10.13;4.72;;;26.50;68.00;;;;;;5014557;28;20049;-72
2022/10/08 12:30:00;;;;;;;10.65;4.72;;;26.70;67.80;;;;;;5032270;28;20067;-71
2022/10/08 12:32:31;;;;;;;8.35;4.68;;;26.80;67.20;;;;;;5014431;28;20018;-70
2022/10/08 12:34:58;;;;;;;9.85;4.63;;;26.70;68.10;;;;;;5032066;28;20165;-72
2022/10/08 12:37:43;;;;;;;8.95;4.13;;;26.60;68.60;;;;;;5034692;28;20013;-73
2022/10/08 12:40:19;;;;;;;9.07;4.20;;;26.60;68.40;;;;;;5035957;28;20490;-74
2022/10/08 12:42:48;;;;;;;6.47;4.05;;;26.50;68.60;;;;;;5035571;28;20033;-73
2022/10/08 12:45:27;;;;;;;11.63;4.25;;;26.50;68.80;;;;;;5035492;28;20053;-70
2022/10/08 12:48:24;;;;;;;7.63;4.40;;;26.60;69.00;;;;;;5035639;28;20087;-73
2022/10/08 12:50:58;;;;;;;10.23;4.22;;;26.50;67.70;;;;;;5035700;28;20033;-72
2022/10/08 12:53:24;;;;;;;7.22;4.50;;;26.50;69.20;;;;;;5035540;28;20136;-71
2022/10/08 12:55:57;;;;;;;9.18;3.92;;;26.40;69.30;;;;;;5035757;28;20033;-72